EGTC

Cranfield Airport

Cranfield, United Kingdom
METAR EGTC 171720Z 23013KT 6000 BKN004 08/08 Q1017
Observed Flight Rules
Dec-17 @ 17:20 UTC (4 hours ago) Instrument Flight Rules
Wind Visibility Clouds
230° at 13 knots 6,003 meters
  • Broken at 400' AGL
Temperatures Readings
Current 8°C / 46°F
Dewpoint 8°C / 46°F
Humidity 100%
Altimeter 30.03" Hg
Pressure 1017 hPa
Elevation 111
METAR EGTC 171720Z 23013KT 6000 BKN004 08/08 Q1017
Observed Flight Rules
Dec-17 @ 17:20 UTC
(4 hours ago)
LIFR
Wind Visibility
230° at 13 knots 6,003 meters
Clouds
  • Broken at 400' AGL
Temperature Dewpoint
8°C / 46°F 8°C / 46°F
Humidity Altimeter Pressure
100% 30.03" Hg 1017 hPa